Time;durP1;ratioP1;P1;durP2;ratioP2;P2;SDS_P1;SDS_P2;PMS_P1;PMS_P2;Temp;Humidity;BMP_temperature;BMP_pressure;BME280_temperature;BME280_humidity;BME280_pressure;Samples;Min_cycle;Max_cycle;Signal;HPM_P1;HPM_P2
2022/01/23 06:02:30;;;;;;;17.73;9.50;;;4.30;99.90;;;;;;4948603;23;20072;-74
2022/01/23 06:04:57;;;;;;;19.63;9.75;;;4.30;99.90;;;;;;4926923;29;20519;-75
2022/01/23 06:07:24;;;;;;;18.27;9.25;;;4.30;99.90;;;;;;4924583;29;20048;-77
2022/01/23 06:09:51;;;;;;;18.85;10.05;;;4.30;99.90;;;;;;4925077;29;20179;-75
2022/01/23 06:12:19;;;;;;;18.08;9.40;;;4.30;99.90;;;;;;4925486;29;20054;-77
2022/01/23 06:14:46;;;;;;;19.20;9.57;;;4.30;99.90;;;;;;4923487;29;20052;-74
2022/01/23 06:17:13;;;;;;;21.05;10.60;;;4.30;99.90;;;;;;4932847;29;20134;-75
2022/01/23 06:19:41;;;;;;;19.02;9.98;;;4.30;99.90;;;;;;4927512;29;20050;-75
2022/01/23 06:22:08;;;;;;;17.77;9.18;;;4.30;99.90;;;;;;4924312;29;20078;-75
2022/01/23 06:24:44;;;;;;;17.20;9.23;;;4.30;99.90;;;;;;4923795;29;20602;-75
2022/01/23 06:27:11;;;;;;;19.58;10.10;;;4.30;99.90;;;;;;4924645;29;20074;-76
2022/01/23 06:29:38;;;;;;;19.30;10.00;;;4.30;99.90;;;;;;4926224;29;20039;-75
2022/01/23 06:32:06;;;;;;;18.52;9.82;;;4.40;99.90;;;;;;4926442;29;20131;-74
2022/01/23 06:34:33;;;;;;;18.15;9.65;;;4.30;99.90;;;;;;4923684;29;20047;-77
2022/01/23 06:37:02;;;;;;;19.60;10.00;;;4.30;99.90;;;;;;4923389;29;20409;-74
2022/01/23 06:39:29;;;;;;;17.50;9.68;;;4.30;99.90;;;;;;4927061;29;20556;-74
2022/01/23 06:41:56;;;;;;;19.63;9.65;;;4.30;99.90;;;;;;4928761;29;20050;-75
2022/01/23 06:44:23;;;;;;;18.10;9.52;;;4.40;99.90;;;;;;4923806;29;20052;-76
2022/01/23 06:46:50;;;;;;;21.38;10.38;;;4.40;99.90;;;;;;4927556;29;20130;-74
2022/01/23 06:49:18;;;;;;;19.02;10.70;;;4.40;99.90;;;;;;4924941;29;20048;-75
2022/01/23 06:51:45;;;;;;;18.50;9.40;;;4.40;99.90;;;;;;4927101;29;20052;-76
2022/01/23 06:54:13;;;;;;;16.27;9.20;;;4.40;99.90;;;;;;4929218;29;20047;-74
2022/01/23 06:56:41;;;;;;;18.50;9.95;;;4.40;99.90;;;;;;4931454;29;20073;-73
2022/01/23 06:59:08;;;;;;;19.55;9.70;;;4.40;99.90;;;;;;4933240;29;20039;-74
2022/01/23 07:01:35;;;;;;;21.00;10.35;;;4.50;99.90;;;;;;4933248;29;20472;-75
2022/01/23 07:04:02;;;;;;;20.67;9.98;;;4.40;99.90;;;;;;4932699;29;20046;-73
2022/01/23 07:06:29;;;;;;;19.70;10.25;;;4.50;99.90;;;;;;4932328;29;20048;-75
2022/01/23 07:08:56;;;;;;;19.05;9.85;;;4.50;99.90;;;;;;4933182;29;20160;-75
2022/01/23 07:11:25;;;;;;;19.80;10.32;;;4.50;99.90;;;;;;4933035;29;20429;-76
2022/01/23 07:13:52;;;;;;;20.85;10.90;;;4.50;99.90;;;;;;4933702;29;20048;-75
2022/01/23 07:16:19;;;;;;;19.88;10.63;;;4.50;99.90;;;;;;4929043;29;20048;-74
2022/01/23 07:18:46;;;;;;;20.10;10.82;;;4.50;99.90;;;;;;4934533;29;20138;-76
2022/01/23 07:21:13;;;;;;;21.10;10.63;;;4.50;99.90;;;;;;4925195;29;20134;-75
2022/01/23 07:23:48;;;;;;;21.52;10.80;;;4.40;99.90;;;;;;4924551;29;20048;-77
2022/01/23 07:26:16;;;;;;;19.85;10.55;;;4.50;99.90;;;;;;4925001;29;20083;-76
2022/01/23 07:28:45;;;;;;;21.63;11.07;;;4.40;99.90;;;;;;4922910;29;20112;-76
2022/01/23 07:31:21;;;;;;;22.92;11.82;;;4.40;99.90;;;;;;4930457;29;20047;-74
2022/01/23 07:33:48;;;;;;;22.77;11.23;;;4.40;99.90;;;;;;4924860;29;20048;-75
2022/01/23 07:36:15;;;;;;;21.98;11.07;;;4.40;99.90;;;;;;4924575;29;20057;-74
2022/01/23 07:38:42;;;;;;;20.05;10.32;;;4.40;99.90;;;;;;4930904;29;20048;-75
2022/01/23 07:41:09;;;;;;;22.17;11.05;;;4.40;99.90;;;;;;4933192;29;20397;-75
2022/01/23 07:43:37;;;;;;;22.75;11.43;;;4.40;99.90;;;;;;4934459;29;20130;-73
2022/01/23 07:46:06;;;;;;;21.00;10.68;;;4.40;99.90;;;;;;4936864;29;20386;-74
2022/01/23 07:48:33;;;;;;;19.83;10.20;;;4.50;99.90;;;;;;4931389;29;20058;-75
2022/01/23 07:51:00;;;;;;;21.50;11.27;;;4.50;99.90;;;;;;4937231;29;20119;-75
2022/01/23 07:53:27;;;;;;;22.45;11.25;;;4.50;99.90;;;;;;4931365;29;20051;-76
2022/01/23 07:55:54;;;;;;;20.85;10.68;;;4.50;99.90;;;;;;4936556;29;20040;-78
2022/01/23 07:58:23;;;;;;;23.67;11.48;;;4.50;99.90;;;;;;4935768;29;20147;-75
2022/01/23 08:00:50;;;;;;;20.17;11.20;;;4.50;99.90;;;;;;4935829;29;20047;-76
2022/01/23 08:03:18;;;;;;;21.13;11.02;;;4.50;99.90;;;;;;4936564;29;20134;-74
2022/01/23 08:05:46;;;;;;;21.02;11.38;;;4.50;99.90;;;;;;4935802;29;20056;-74
2022/01/23 08:08:13;;;;;;;23.48;11.43;;;4.60;99.90;;;;;;4936295;29;20062;-75
2022/01/23 08:10:43;;;;;;;21.08;11.57;;;4.60;99.90;;;;;;4936852;29;20433;-75
2022/01/23 08:13:10;;;;;;;23.02;11.30;;;4.60;99.90;;;;;;4936382;29;20048;-77
2022/01/23 08:15:37;;;;;;;22.98;11.43;;;4.60;99.90;;;;;;4935599;29;20047;-73
2022/01/23 08:18:06;;;;;;;24.67;12.30;;;4.60;99.90;;;;;;4926803;29;20050;-75
2022/01/23 08:20:35;;;;;;;23.83;11.85;;;4.70;99.90;;;;;;4926457;29;20044;-74
2022/01/23 08:23:04;;;;;;;22.95;11.85;;;4.60;99.90;;;;;;4925995;29;20052;-75
2022/01/23 08:25:32;;;;;;;27.75;13.60;;;4.60;99.90;;;;;;4921526;29;20051;-77
2022/01/23 08:28:01;;;;;;;44.35;19.38;;;4.60;99.90;;;;;;4921049;29;20046;-76
2022/01/23 08:30:29;;;;;;;36.30;16.85;;;4.60;99.90;;;;;;4935628;29;20040;-76
2022/01/23 08:32:56;;;;;;;31.25;15.13;;;4.60;99.90;;;;;;4932107;29;20479;-76
2022/01/23 08:35:23;;;;;;;23.70;12.27;;;4.60;99.90;;;;;;4933266;29;20512;-77
2022/01/23 08:37:52;;;;;;;24.83;12.23;;;4.60;99.90;;;;;;4934764;29;20138;-76
2022/01/23 08:40:23;;;;;;;25.58;12.65;;;4.70;99.90;;;;;;4934650;29;20134;-76
2022/01/23 08:42:52;;;;;;;26.98;14.00;;;4.70;99.90;;;;;;4936087;29;20050;-77
2022/01/23 08:45:19;;;;;;;23.85;11.68;;;4.70;99.90;;;;;;4934486;29;20107;-75
2022/01/23 08:47:47;;;;;;;23.88;12.32;;;4.70;99.90;;;;;;4935150;29;20135;-75
2022/01/23 08:50:15;;;;;;;23.35;12.00;;;4.70;99.90;;;;;;4934492;29;20051;-75
2022/01/23 08:52:42;;;;;;;23.35;11.80;;;4.80;99.90;;;;;;4931388;29;20048;-76
2022/01/23 08:55:11;;;;;;;20.45;10.75;;;4.80;99.90;;;;;;4930169;29;20046;-76
2022/01/23 08:57:38;;;;;;;20.88;11.13;;;4.80;99.90;;;;;;4936393;29;20122;-74
2022/01/23 09:00:08;;;;;;;21.27;11.38;;;4.90;99.90;;;;;;4935587;29;20047;-74
2022/01/23 09:02:35;;;;;;;21.70;11.20;;;4.90;99.90;;;;;;4935141;29;20047;-76
2022/01/23 09:05:02;;;;;;;21.70;10.95;;;4.90;99.90;;;;;;4934838;29;20130;-75
2022/01/23 09:07:29;;;;;;;19.55;10.68;;;4.90;99.90;;;;;;4934497;29;20052;-77
2022/01/23 09:10:01;;;;;;;22.08;11.10;;;4.90;99.90;;;;;;4929694;29;20130;-74
2022/01/23 09:12:44;;;;;;;21.95;11.23;;;4.90;99.90;;;;;;4927395;29;20050;-75
2022/01/23 09:15:12;;;;;;;22.05;11.68;;;4.90;99.90;;;;;;4930002;29;20048;-74
2022/01/23 09:17:41;;;;;;;20.90;11.57;;;4.90;99.90;;;;;;4935474;29;20465;-74
2022/01/23 09:20:09;;;;;;;21.65;11.50;;;4.90;99.90;;;;;;4934668;29;20044;-75
2022/01/23 09:22:36;;;;;;;19.63;10.77;;;4.90;99.90;;;;;;4935380;29;20123;-75
2022/01/23 09:25:04;;;;;;;20.90;10.98;;;5.00;99.90;;;;;;4935233;29;20159;-73
2022/01/23 09:27:33;;;;;;;21.45;11.13;;;5.00;99.90;;;;;;4927649;29;20473;-77
2022/01/23 09:30:06;;;;;;;22.58;11.57;;;5.00;99.90;;;;;;4928080;29;20102;-75
2022/01/23 09:32:34;;;;;;;23.20;11.52;;;5.00;99.90;;;;;;4933525;29;20056;-74
2022/01/23 09:35:02;;;;;;;23.67;11.77;;;5.00;99.90;;;;;;4924707;29;20048;-75
2022/01/23 09:37:29;;;;;;;19.60;10.57;;;5.00;99.90;;;;;;4924760;29;20417;-73
2022/01/23 09:39:56;;;;;;;24.90;13.00;;;5.00;99.90;;;;;;4924325;29;20040;-75
2022/01/23 09:42:27;;;;;;;23.55;11.85;;;5.00;99.90;;;;;;4931201;29;20138;-75
2022/01/23 09:45:00;;;;;;;25.45;12.10;;;5.10;99.90;;;;;;4928027;29;20061;-74
2022/01/23 09:47:28;;;;;;;22.08;11.43;;;5.10;99.90;;;;;;4924730;29;20408;-73
2022/01/23 09:49:57;;;;;;;20.63;10.55;;;5.10;99.90;;;;;;4922781;29;20044;-76
2022/01/23 09:52:25;;;;;;;21.55;10.27;;;5.10;99.90;;;;;;4925621;29;20386;-74
2022/01/23 09:54:57;;;;;;;22.25;10.55;;;5.10;99.90;;;;;;4924132;29;20051;-75
2022/01/23 09:57:29;;;;;;;20.10;10.73;;;5.10;99.90;;;;;;4921496;29;20056;-76
2022/01/23 09:59:58;;;;;;;19.08;10.63;;;5.20;99.90;;;;;;4925918;29;20044;-75
2022/01/23 10:02:26;;;;;;;20.30;10.75;;;5.20;99.90;;;;;;4921769;29;20074;-76
2022/01/23 10:04:54;;;;;;;21.73;11.65;;;5.30;99.90;;;;;;4927398;29;20051;-76
2022/01/23 10:07:21;;;;;;;21.23;11.05;;;5.30;99.90;;;;;;4918922;29;20048;-76
2022/01/23 10:09:54;;;;;;;22.80;11.63;;;5.30;99.90;;;;;;4924182;29;20083;-78
2022/01/23 10:12:26;;;;;;;20.15;11.13;;;5.40;99.90;;;;;;4928387;29;20071;-75
2022/01/23 10:14:54;;;;;;;22.52;11.75;;;5.40;99.90;;;;;;4924171;29;20537;-77
2022/01/23 10:17:23;;;;;;;18.77;10.35;;;5.40;99.90;;;;;;4930995;29;20510;-76
2022/01/23 10:19:50;;;;;;;20.35;11.07;;;5.50;99.90;;;;;;4927551;29;20043;-78
2022/01/23 10:22:17;;;;;;;18.30;9.75;;;5.50;99.90;;;;;;4925888;29;20078;-77
2022/01/23 10:24:45;;;;;;;21.63;11.07;;;5.50;99.90;;;;;;4924080;29;20074;-77
2022/01/23 10:27:12;;;;;;;19.73;10.93;;;5.60;99.90;;;;;;4918836;29;20188;-76
2022/01/23 10:29:44;;;;;;;22.20;11.90;;;5.60;99.90;;;;;;4925588;29;20066;-76
2022/01/23 10:32:18;;;;;;;20.75;10.88;;;5.60;99.90;;;;;;4933519;29;20052;-78
2022/01/23 10:34:51;;;;;;;21.27;11.35;;;5.70;99.90;;;;;;4929281;29;20104;-80
2022/01/23 10:37:33;;;;;;;21.50;11.63;;;5.70;99.90;;;;;;4933774;29;20047;-77
2022/01/23 10:40:05;;;;;;;19.83;10.85;;;5.70;99.90;;;;;;4934400;29;20098;-74
2022/01/23 10:42:53;;;;;;;19.15;11.10;;;5.80;99.90;;;;;;4925936;29;20067;-76
2022/01/23 10:48:45;;;;;;;21.58;10.40;;;5.70;99.90;;;;;;4930345;29;20074;-76
2022/01/23 10:51:28;;;;;;;19.67;10.52;;;5.70;99.90;;;;;;4923764;29;20484;-76
2022/01/23 10:54:09;;;;;;;20.92;11.90;;;5.70;99.90;;;;;;4919509;29;20055;-74
2022/01/23 10:56:40;;;;;;;21.38;12.07;;;5.80;99.90;;;;;;4923539;29;20090;-76
2022/01/23 10:59:10;;;;;;;18.92;10.90;;;5.80;99.90;;;;;;4930459;29;20047;-73
2022/01/23 11:01:39;;;;;;;19.33;10.77;;;5.80;99.90;;;;;;4935110;29;20060;-74
2022/01/23 11:04:12;;;;;;;22.63;11.73;;;5.80;99.90;;;;;;4932270;29;20039;-75
2022/01/23 11:06:58;;;;;;;19.42;11.10;;;5.80;99.90;;;;;;4924361;29;20480;-77
2022/01/23 11:09:32;;;;;;;19.90;11.00;;;5.80;99.90;;;;;;4923499;29;20135;-75
2022/01/23 11:12:06;;;;;;;22.75;12.50;;;5.80;99.90;;;;;;4923710;29;20490;-74
2022/01/23 11:17:25;;;;;;;21.40;11.23;;;5.90;99.90;;;;;;4925304;29;20089;-75
2022/01/23 11:19:59;;;;;;;20.63;11.55;;;5.90;99.90;;;;;;4923075;29;20040;-74
2022/01/23 11:22:31;;;;;;;21.85;11.57;;;5.90;99.90;;;;;;4923477;29;20442;-75
2022/01/23 11:25:01;;;;;;;20.80;10.73;;;6.00;99.90;;;;;;4933465;29;20050;-76
2022/01/23 11:27:37;;;;;;;20.27;10.77;;;6.00;99.90;;;;;;4928756;29;20054;-76
2022/01/23 11:30:09;;;;;;;27.13;14.50;;;6.00;99.90;;;;;;4936178;29;20044;-75
2022/01/23 11:32:39;;;;;;;26.80;14.25;;;6.10;99.90;;;;;;4930075;29;20138;-74
2022/01/23 11:35:11;;;;;;;36.38;18.35;;;6.20;99.90;;;;;;4936504;29;20047;-75
2022/01/23 11:37:46;;;;;;;35.63;18.55;;;6.20;99.90;;;;;;4931018;29;20051;-75
2022/01/23 11:40:31;;;;;;;31.77;17.52;;;6.30;99.90;;;;;;4928670;29;20168;-76
2022/01/23 11:54:16;;;;;;;19.92;10.88;;;6.30;99.90;;;;;;4928520;29;20138;-79
2022/01/23 11:56:46;;;;;;;22.33;11.18;;;6.30;99.90;;;;;;4926740;29;20474;-78
2022/01/23 11:59:26;;;;;;;19.38;10.52;;;6.40;99.90;;;;;;4927970;29;20504;-79
2022/01/23 12:02:30;;;;;;;20.92;11.77;;;6.40;99.90;;;;;;4929623;29;20520;-76
2022/01/23 12:05:26;;;;;;;;;;;6.40;99.90;;;;;;4927228;29;20052;-78
2022/01/23 12:08:23;;;;;;;19.08;10.15;;;6.50;99.90;;;;;;4932470;29;20341;-78
2022/01/23 12:11:39;;;;;;;18.02;9.75;;;6.50;99.90;;;;;;4891780;29;20048;-79
2022/01/23 12:17:41;;;;;;;;;;;6.70;99.90;;;;;;4928497;29;20071;-81
2022/01/23 12:20:09;;;;;;;16.90;9.73;;;6.70;99.90;;;;;;4911637;29;19930;-78
2022/01/23 12:22:56;;;;;;;17.17;10.00;;;6.80;99.90;;;;;;4926151;29;20561;-80
2022/01/23 12:25:30;;;;;;;17.10;9.95;;;6.80;99.90;;;;;;4931542;29;20052;-79
2022/01/23 12:28:28;;;;;;;19.50;11.05;;;6.80;99.90;;;;;;4922156;29;20048;-78
2022/01/23 12:30:58;;;;;;;17.88;10.63;;;6.90;99.90;;;;;;4891506;29;20044;-75
2022/01/23 12:33:46;;;;;;;17.65;9.82;;;7.00;99.90;;;;;;4921973;29;20139;-80
2022/01/23 12:36:26;;;;;;;18.88;10.55;;;7.00;99.90;;;;;;4922837;29;20078;-78
2022/01/23 12:38:56;;;;;;;15.85;9.60;;;7.10;99.90;;;;;;4925567;29;20139;-77
2022/01/23 12:41:32;;;;;;;16.95;9.23;;;7.20;99.90;;;;;;4922336;29;20055;-79
2022/01/23 12:44:04;;;;;;;15.32;8.93;;;7.20;99.90;;;;;;4922978;29;20066;-77
2022/01/23 12:46:41;;;;;;;16.10;8.68;;;7.30;99.90;;;;;;4922831;29;20062;-79
2022/01/23 12:49:28;;;;;;;13.65;8.63;;;7.30;99.90;;;;;;4922370;29;20153;-77
2022/01/23 12:52:15;;;;;;;15.63;8.98;;;7.40;99.90;;;;;;4922094;29;20048;-77
2022/01/23 12:54:56;;;;;;;16.58;9.30;;;7.30;99.90;;;;;;4921709;29;20051;-79
2022/01/23 12:57:35;;;;;;;14.80;9.25;;;7.30;99.90;;;;;;4923912;29;20047;-79
2022/01/23 13:00:10;;;;;;;15.10;9.15;;;7.40;99.90;;;;;;4922529;29;20054;-78
2022/01/23 13:02:43;;;;;;;14.68;8.50;;;7.40;99.90;;;;;;4920523;29;20055;-77
2022/01/23 13:05:12;;;;;;;15.77;9.20;;;7.40;99.90;;;;;;4925099;29;20087;-79
2022/01/23 13:07:47;;;;;;;16.00;9.10;;;7.40;99.90;;;;;;4925671;29;20139;-80
2022/01/23 13:10:29;;;;;;;;;;;7.30;99.90;;;;;;4912043;29;20052;-78
2022/01/23 13:13:07;;;;;;;20.35;11.38;;;7.30;99.90;;;;;;4926423;29;19983;-78
2022/01/23 13:15:58;;;;;;;19.38;10.48;;;7.30;99.80;;;;;;4919432;29;20052;-78
2022/01/23 13:27:26;;;;;;;16.05;8.30;;;6.90;99.70;;;;;;4923599;29;20448;-77
2022/01/23 13:30:00;;;;;;;15.15;8.60;;;6.80;99.90;;;;;;4918952;29;20052;-77
2022/01/23 13:32:39;;;;;;;14.27;8.32;;;6.70;99.90;;;;;;4920869;29;20621;-75
2022/01/23 13:35:12;;;;;;;15.90;8.63;;;6.70;99.90;;;;;;4921379;29;20485;-80
2022/01/23 13:37:42;;;;;;;15.02;8.73;;;6.70;99.90;;;;;;4920436;29;20055;-78
2022/01/23 13:40:13;;;;;;;12.82;7.43;;;6.70;99.90;;;;;;4931385;29;20070;-76
2022/01/23 13:42:56;;;;;;;14.77;8.18;;;6.70;99.90;;;;;;4922522;29;20075;-74
2022/01/23 13:48:50;;;;;;;13.93;7.97;;;6.70;99.90;;;;;;4919596;29;20161;-75
2022/01/23 13:57:33;;;;;;;11.38;6.93;;;6.60;99.90;;;;;;4903249;29;20051;-74
2022/01/23 13:59:59;;;;;;;11.90;6.78;;;6.60;99.90;;;;;;4920259;29;20465;-77
2022/01/23 14:02:28;;;;;;;11.27;6.30;;;6.60;99.90;;;;;;4923582;29;20386;-77
2022/01/23 14:05:08;;;;;;;11.00;6.30;;;6.50;99.90;;;;;;4923066;29;20143;-75
2022/01/23 14:07:36;;;;;;;10.82;6.60;;;6.50;99.90;;;;;;4917106;29;20070;-78
2022/01/23 14:10:14;;;;;;;10.30;6.18;;;6.60;99.90;;;;;;4924684;29;20493;-77
2022/01/23 14:12:42;;;;;;;12.90;7.15;;;6.50;99.90;;;;;;4920343;29;20126;-76
2022/01/23 14:15:15;;;;;;;12.88;7.13;;;6.60;99.90;;;;;;4922190;29;20064;-77
2022/01/23 14:17:43;;;;;;;11.40;6.82;;;6.60;99.90;;;;;;4919708;29;20626;-79
2022/01/23 14:20:16;;;;;;;12.43;6.45;;;6.50;99.90;;;;;;4925196;29;20510;-77
2022/01/23 14:22:46;;;;;;;11.75;6.80;;;6.50;99.90;;;;;;4921879;29;20056;-78
2022/01/23 14:25:16;;;;;;;11.60;6.68;;;6.50;99.90;;;;;;4920232;29;20726;-75
2022/01/23 14:28:01;;;;;;;12.73;7.30;;;6.50;99.90;;;;;;4921218;29;20427;-78
2022/01/23 14:30:29;;;;;;;12.98;7.28;;;6.60;99.90;;;;;;4925453;29;20071;-78
2022/01/23 14:33:05;;;;;;;12.93;6.88;;;6.60;99.90;;;;;;4925861;29;20047;-75
2022/01/23 14:35:35;;;;;;;11.77;6.68;;;6.60;99.90;;;;;;4926580;29;20490;-77
2022/01/23 14:38:12;;;;;;;13.05;7.38;;;6.60;99.90;;;;;;4918318;29;20048;-76
2022/01/23 14:40:41;;;;;;;11.98;6.80;;;6.60;99.90;;;;;;4924814;29;20070;-78
2022/01/23 14:43:11;;;;;;;11.50;6.53;;;6.60;99.60;;;;;;4921154;29;20066;-76
2022/01/23 14:45:41;;;;;;;10.88;5.90;;;6.60;99.20;;;;;;4925212;29;20098;-76
2022/01/23 14:48:10;;;;;;;10.18;5.75;;;6.60;99.00;;;;;;4920923;29;20058;-75
2022/01/23 14:50:43;;;;;;;10.23;5.78;;;6.60;99.10;;;;;;4925700;29;20134;-75
2022/01/23 14:53:12;;;;;;;11.18;6.10;;;6.60;99.20;;;;;;4926666;29;20047;-75
2022/01/23 14:55:43;;;;;;;11.70;6.78;;;6.50;99.00;;;;;;4920796;29;20135;-74
2022/01/23 14:58:11;;;;;;;11.70;7.00;;;6.60;98.70;;;;;;4921400;29;20143;-75
2022/01/23 15:00:40;;;;;;;11.98;6.47;;;6.50;98.60;;;;;;4931777;29;20086;-76
2022/01/23 15:03:08;;;;;;;13.00;6.75;;;6.50;98.80;;;;;;4907097;29;20061;-77
2022/01/23 15:05:40;;;;;;;12.50;6.07;;;6.50;99.00;;;;;;4911772;29;20050;-73
2022/01/23 15:08:12;;;;;;;12.55;7.35;;;6.50;99.10;;;;;;4908760;29;20051;-74
2022/01/23 15:10:41;;;;;;;11.98;6.70;;;6.50;99.10;;;;;;4910530;29;20131;-76
2022/01/23 15:13:09;;;;;;;12.23;6.68;;;6.50;99.00;;;;;;4911537;29;20044;-74
2022/01/23 15:15:36;;;;;;;9.70;5.65;;;6.50;99.20;;;;;;4902751;29;20072;-74
2022/01/23 15:18:04;;;;;;;8.68;4.88;;;6.40;99.30;;;;;;4912912;29;20056;-73
2022/01/23 15:20:33;;;;;;;6.43;3.78;;;6.40;98.90;;;;;;4907923;29;20127;-75
2022/01/23 15:23:02;;;;;;;7.30;3.88;;;6.40;98.50;;;;;;4919785;29;20048;-75
2022/01/23 15:25:30;;;;;;;5.72;2.95;;;6.30;98.00;;;;;;4912564;29;20087;-73
2022/01/23 15:27:58;;;;;;;6.95;3.60;;;6.30;97.80;;;;;;4901115;29;20132;-73
2022/01/23 15:30:26;;;;;;;6.65;3.70;;;6.30;97.20;;;;;;4914351;29;20135;-75
2022/01/23 15:32:54;;;;;;;6.97;3.72;;;6.20;97.10;;;;;;4920221;29;20091;-74
2022/01/23 15:35:24;;;;;;;6.88;3.53;;;6.20;97.00;;;;;;4916524;29;20131;-77
2022/01/23 15:37:53;;;;;;;5.65;2.80;;;6.20;96.90;;;;;;4917991;29;20048;-78
2022/01/23 15:40:24;;;;;;;4.45;2.50;;;6.20;96.60;;;;;;4909140;29;20147;-77
2022/01/23 15:42:53;;;;;;;4.65;2.53;;;6.20;96.30;;;;;;4908961;29;20147;-78
2022/01/23 15:45:22;;;;;;;4.95;2.75;;;6.10;96.30;;;;;;4913715;29;20048;-78
2022/01/23 15:47:50;;;;;;;5.32;2.45;;;6.10;96.10;;;;;;4907930;29;20048;-77
2022/01/23 15:50:19;;;;;;;5.05;2.33;;;6.10;96.00;;;;;;4903942;29;20079;-77
2022/01/23 15:52:47;;;;;;;4.70;2.35;;;6.10;95.90;;;;;;4904002;29;20051;-79
2022/01/23 15:55:16;;;;;;;5.68;2.63;;;6.10;95.80;;;;;;4903417;29;20144;-76
2022/01/23 15:57:48;;;;;;;5.30;2.60;;;6.10;95.80;;;;;;4907217;29;20052;-79
2022/01/23 16:00:18;;;;;;;5.57;2.90;;;6.10;95.70;;;;;;4901211;29;20491;-79
2022/01/23 16:02:46;;;;;;;6.13;2.55;;;6.10;95.60;;;;;;4921657;29;20055;-75
2022/01/23 16:05:13;;;;;;;5.65;2.53;;;6.10;95.50;;;;;;4920997;29;20130;-76
2022/01/23 16:07:40;;;;;;;4.30;2.40;;;6.10;95.60;;;;;;4922247;29;20048;-74
2022/01/23 16:10:08;;;;;;;4.63;2.47;;;6.10;95.60;;;;;;4928855;29;20133;-77
2022/01/23 16:12:37;;;;;;;5.60;3.03;;;6.10;95.90;;;;;;4926945;29;20131;-76
2022/01/23 16:15:08;;;;;;;5.25;2.50;;;6.10;95.80;;;;;;4922675;29;20048;-79
2022/01/23 16:17:36;;;;;;;5.38;2.60;;;6.10;96.00;;;;;;4922613;29;20249;-77
2022/01/23 16:20:05;;;;;;;5.10;2.47;;;6.10;96.10;;;;;;4925851;29;20463;-76
2022/01/23 16:22:32;;;;;;;3.65;2.00;;;6.10;96.10;;;;;;4934396;29;20075;-78
2022/01/23 16:24:59;;;;;;;4.72;2.20;;;6.10;96.00;;;;;;4919987;29;20124;-78
2022/01/23 16:27:26;;;;;;;4.30;2.30;;;6.10;95.90;;;;;;4921679;29;20120;-79
2022/01/23 16:29:53;;;;;;;4.40;2.22;;;6.10;96.00;;;;;;4929160;29;20491;-77
2022/01/23 16:32:22;;;;;;;4.68;2.17;;;6.10;95.80;;;;;;4926368;29;20472;-78
2022/01/23 16:34:49;;;;;;;4.75;2.38;;;6.00;96.10;;;;;;4927805;29;20050;-78
2022/01/23 16:37:16;;;;;;;4.53;2.22;;;6.00;96.00;;;;;;4930936;29;20129;-78
2022/01/23 16:39:43;;;;;;;4.53;2.20;;;6.00;96.30;;;;;;4925077;29;20154;-78
2022/01/23 16:42:10;;;;;;;4.03;2.10;;;6.00;96.10;;;;;;4924086;29;20146;-79
2022/01/23 16:44:38;;;;;;;5.35;2.33;;;5.90;95.90;;;;;;4924716;29;20054;-78
2022/01/23 16:47:07;;;;;;;3.90;2.00;;;6.00;95.80;;;;;;4921574;29;20044;-78
2022/01/23 16:49:36;;;;;;;4.72;2.50;;;5.90;96.10;;;;;;4925930;29;20071;-78
2022/01/23 16:52:04;;;;;;;6.55;3.15;;;5.90;96.20;;;;;;4924927;29;21669;-78
2022/01/23 16:54:31;;;;;;;6.43;2.80;;;5.90;96.30;;;;;;4923361;29;20150;-78
2022/01/23 16:56:58;;;;;;;5.40;2.35;;;5.90;96.30;;;;;;4919642;29;20054;-78
2022/01/23 16:59:26;;;;;;;4.57;2.38;;;5.90;96.30;;;;;;4921430;29;20044;-76
2022/01/23 17:01:53;;;;;;;4.80;2.20;;;5.90;96.30;;;;;;4921201;29;20063;-77
2022/01/23 17:04:20;;;;;;;3.70;1.90;;;5.90;96.50;;;;;;4920143;29;20122;-77
2022/01/23 17:06:49;;;;;;;3.25;1.60;;;5.80;96.50;;;;;;4926436;29;20070;-76
2022/01/23 17:09:16;;;;;;;4.63;1.90;;;5.80;96.90;;;;;;4924328;29;20062;-75
2022/01/23 17:11:43;;;;;;;3.88;1.80;;;5.80;96.90;;;;;;4926547;29;20052;-76
2022/01/23 17:14:10;;;;;;;4.10;1.90;;;5.80;97.30;;;;;;4919849;29;20052;-75
2022/01/23 17:16:37;;;;;;;3.85;1.70;;;5.80;97.00;;;;;;4923649;29;20131;-75
2022/01/23 17:19:04;;;;;;;4.10;1.77;;;5.80;97.10;;;;;;4922593;29;20052;-78
2022/01/23 17:21:31;;;;;;;4.60;1.90;;;5.70;97.20;;;;;;4925403;29;20139;-78
2022/01/23 17:24:00;;;;;;;3.30;1.60;;;5.70;97.30;;;;;;4927136;29;20044;-80
2022/01/23 17:26:27;;;;;;;4.05;1.70;;;5.80;97.40;;;;;;4924953;29;20052;-78
2022/01/23 17:28:54;;;;;;;4.75;1.98;;;5.70;97.50;;;;;;4925203;29;20075;-77
2022/01/23 17:31:21;;;;;;;3.78;1.77;;;5.80;97.10;;;;;;4923158;29;20083;-79
2022/01/23 17:33:48;;;;;;;3.60;1.73;;;5.80;97.10;;;;;;4921058;29;20040;-76
2022/01/23 17:36:15;;;;;;;3.78;1.70;;;5.80;97.10;;;;;;4921679;29;20068;-80
2022/01/23 17:38:42;;;;;;;3.60;1.70;;;5.70;97.10;;;;;;4921436;29;20160;-79
2022/01/23 17:41:12;;;;;;;3.97;1.80;;;5.70;97.20;;;;;;4922470;29;20145;-81
2022/01/23 17:43:39;;;;;;;3.70;1.60;;;5.70;97.30;;;;;;4919040;29;20123;-78
2022/01/23 17:46:07;;;;;;;4.20;2.13;;;5.70;97.40;;;;;;4919591;29;20048;-78
2022/01/23 17:48:49;;;;;;;3.83;1.75;;;5.80;97.40;;;;;;4920019;29;20111;-79
2022/01/23 17:51:17;;;;;;;4.40;1.80;;;5.80;97.40;;;;;;4922930;29;20395;-78
2022/01/23 17:53:46;;;;;;;3.58;1.67;;;5.80;97.40;;;;;;4921626;29;20127;-78
2022/01/23 17:56:15;;;;;;;3.20;1.45;;;5.80;97.40;;;;;;4921860;29;20056;-78
2022/01/23 17:58:42;;;;;;;3.35;1.67;;;5.80;97.60;;;;;;4919537;29;20051;-77
2022/01/23 18:01:11;;;;;;;3.72;1.80;;;5.70;97.50;;;;;;4924281;29;20048;-79
2022/01/23 18:03:40;;;;;;;3.13;1.40;;;5.70;97.50;;;;;;4925891;29;20062;-79
2022/01/23 18:06:12;;;;;;;3.55;1.75;;;5.70;97.50;;;;;;4922644;29;20159;-76
2022/01/23 18:08:40;;;;;;;3.50;1.80;;;5.70;97.60;;;;;;4920782;29;20047;-74
2022/01/23 18:11:07;;;;;;;4.60;2.22;;;5.80;97.90;;;;;;4922431;29;20048;-76
2022/01/23 18:13:42;;;;;;;4.78;2.00;;;5.80;97.70;;;;;;4922775;29;20044;-74
2022/01/23 18:16:10;;;;;;;3.90;1.80;;;5.80;97.50;;;;;;4923135;29;20162;-77
2022/01/23 18:18:37;;;;;;;4.13;2.08;;;5.80;97.30;;;;;;4926383;29;20143;-74
2022/01/23 18:21:04;;;;;;;4.70;2.20;;;5.80;97.40;;;;;;4932142;29;20481;-77
2022/01/23 18:23:31;;;;;;;3.95;2.05;;;5.80;97.60;;;;;;4919577;29;20067;-74
2022/01/23 18:25:59;;;;;;;4.95;2.22;;;5.80;97.70;;;;;;4922907;29;20078;-74
2022/01/23 18:28:30;;;;;;;4.38;1.95;;;5.70;97.80;;;;;;4930012;29;20059;-74
2022/01/23 18:30:59;;;;;;;4.68;2.10;;;5.70;97.80;;;;;;4918535;29;20048;-74
2022/01/23 18:33:26;;;;;;;4.78;2.20;;;5.70;97.70;;;;;;4926444;29;20131;-78
2022/01/23 18:35:54;;;;;;;4.15;2.00;;;5.70;97.60;;;;;;4925448;29;20053;-76
2022/01/23 18:38:21;;;;;;;4.28;2.08;;;5.70;97.60;;;;;;4923811;29;20043;-76
2022/01/23 18:40:48;;;;;;;4.20;2.30;;;5.70;97.60;;;;;;4922659;29;20206;-74
2022/01/23 18:43:15;;;;;;;5.65;2.40;;;5.70;97.80;;;;;;4924366;29;20436;-75
2022/01/23 18:45:43;;;;;;;4.90;2.78;;;5.70;97.80;;;;;;4924216;29;20063;-76
2022/01/23 18:48:11;;;;;;;5.55;2.70;;;5.70;97.90;;;;;;4924698;29;20071;-77
2022/01/23 18:50:38;;;;;;;7.20;3.53;;;5.70;97.70;;;;;;4927371;29;20410;-76
2022/01/23 18:53:10;;;;;;;12.40;6.22;;;5.70;97.80;;;;;;4926051;29;20560;-75
2022/01/23 18:55:38;;;;;;;9.05;4.63;;;5.70;97.90;;;;;;4922961;29;20109;-75
2022/01/23 18:58:09;;;;;;;6.88;3.55;;;5.70;98.00;;;;;;4923887;29;20040;-75
2022/01/23 19:00:38;;;;;;;5.68;2.90;;;5.70;98.10;;;;;;4923248;29;20130;-75
2022/01/23 19:03:17;;;;;;;5.47;2.60;;;5.70;98.00;;;;;;4923321;29;20052;-76
2022/01/23 19:05:50;;;;;;;4.95;2.20;;;5.70;98.00;;;;;;4927383;29;20047;-75
2022/01/23 19:08:19;;;;;;;5.03;2.50;;;5.70;98.30;;;;;;4931213;29;20066;-75
2022/01/23 19:10:47;;;;;;;4.20;2.30;;;5.80;98.00;;;;;;4929132;29;20044;-74
2022/01/23 19:13:18;;;;;;;4.63;2.30;;;5.70;97.90;;;;;;4923284;29;20047;-74
2022/01/23 19:15:49;;;;;;;4.90;2.70;;;5.70;97.70;;;;;;4923488;29;20043;-75
2022/01/23 19:18:16;;;;;;;5.65;3.08;;;5.80;97.70;;;;;;4925663;29;20052;-76
2022/01/23 19:20:45;;;;;;;5.25;2.60;;;5.80;97.70;;;;;;4919058;29;20051;-77
2022/01/23 19:23:12;;;;;;;5.63;2.88;;;5.70;97.60;;;;;;4920034;29;20143;-77
2022/01/23 19:25:39;;;;;;;5.63;2.70;;;5.80;97.60;;;;;;4920291;29;20558;-77
2022/01/23 19:28:08;;;;;;;4.68;2.83;;;5.70;97.60;;;;;;4920625;29;20142;-77
2022/01/23 19:30:38;;;;;;;4.68;2.60;;;5.70;97.50;;;;;;4919532;29;20056;-77
2022/01/23 19:33:07;;;;;;;4.43;2.40;;;5.70;97.60;;;;;;4921548;29;20143;-76
2022/01/23 19:35:37;;;;;;;4.80;2.45;;;5.70;97.50;;;;;;4921341;29;20094;-76
2022/01/23 19:38:09;;;;;;;5.55;2.95;;;5.70;97.40;;;;;;4918937;29;20077;-74
2022/01/23 19:40:43;;;;;;;5.25;2.80;;;5.70;97.50;;;;;;4923876;29;20051;-78
2022/01/23 19:46:01;;;;;;;4.57;2.70;;;5.70;97.40;;;;;;4920488;29;20047;-75
2022/01/23 19:48:33;;;;;;;4.93;2.63;;;5.70;97.60;;;;;;4923098;29;20391;-74